createdAt,value
2023-03-20T00:02:26.587Z,11.60
2023-03-20T00:04:55.182Z,9.90
2023-03-20T00:07:23.766Z,11.83
2023-03-20T00:09:53.736Z,11.57
2023-03-20T00:12:27.211Z,10.47
2023-03-20T00:14:55.872Z,12.53
2023-03-20T00:17:24.602Z,11.90
2023-03-20T00:19:53.090Z,10.83
2023-03-20T00:22:22.583Z,11.13
2023-03-20T00:24:51.596Z,11.63
2023-03-20T00:27:21.660Z,10.07
2023-03-20T00:29:50.418Z,11.17
2023-03-20T00:32:18.988Z,11.47
2023-03-20T00:34:47.560Z,12.30
2023-03-20T00:37:16.605Z,11.07
2023-03-20T00:39:45.289Z,11.30
2023-03-20T00:42:21.198Z,10.57
2023-03-20T00:44:54.418Z,12.60
2023-03-20T00:48:43.450Z,9.90
2023-03-20T00:51:12.005Z,10.37
2023-03-20T00:53:40.621Z,12.57
2023-03-20T00:56:32.873Z,10.10
2023-03-20T00:59:03.835Z,12.33
2023-03-20T01:01:34.109Z,11.07
2023-03-20T01:04:02.652Z,12.87
2023-03-20T01:06:31.560Z,12.70
2023-03-20T01:09:00.219Z,10.20
2023-03-20T01:11:29.395Z,10.57
2023-03-20T01:13:57.953Z,10.90
2023-03-20T01:16:28.368Z,10.43
2023-03-20T01:18:58.480Z,11.73
2023-03-20T01:21:27.026Z,10.70
2023-03-20T01:23:55.670Z,12.87
2023-03-20T01:26:29.031Z,11.40
2023-03-20T01:28:57.632Z,9.47
2023-03-20T01:31:26.822Z,9.60
2023-03-20T01:33:55.676Z,8.93
2023-03-20T01:36:25.973Z,10.73
2023-03-20T01:38:57.388Z,11.27
2023-03-20T01:41:27.769Z,14.47
2023-03-20T01:43:56.982Z,12.97
2023-03-20T01:46:30.078Z,11.70
2023-03-20T01:49:30.664Z,11.87
2023-03-20T01:52:05.516Z,13.30
2023-03-20T01:54:37.453Z,13.60
2023-03-20T01:57:16.323Z,11.50
2023-03-20T01:59:48.801Z,11.50
2023-03-20T02:02:20.956Z,11.63
2023-03-20T02:04:53.929Z,12.43
2023-03-20T02:07:25.654Z,13.43
2023-03-20T02:10:02.404Z,11.97
2023-03-20T02:12:41.498Z,11.20
2023-03-20T02:15:16.457Z,14.87
2023-03-20T02:17:59.259Z,13.80
2023-03-20T02:20:47.002Z,12.83
2023-03-20T02:23:48.704Z,12.60
2023-03-20T02:27:12.926Z,13.80
2023-03-20T02:30:11.640Z,13.13
2023-03-20T02:33:24.295Z,13.57
2023-03-20T02:36:34.877Z,12.17
2023-03-20T02:39:22.907Z,14.83
2023-03-20T02:41:58.570Z,12.33
2023-03-20T02:44:32.872Z,11.30
2023-03-20T02:47:09.324Z,11.73
2023-03-20T02:49:54.800Z,11.37
2023-03-20T02:52:33.605Z,12.67
2023-03-20T02:55:14.044Z,11.23
2023-03-20T02:57:49.298Z,11.03
2023-03-20T03:00:28.548Z,10.57
2023-03-20T03:03:05.520Z,9.80
2023-03-20T03:05:39.369Z,11.33
2023-03-20T03:08:13.787Z,9.23
2023-03-20T03:10:46.898Z,10.90
2023-03-20T03:13:20.060Z,11.40
2023-03-20T03:15:51.533Z,12.23
2023-03-20T03:18:24.227Z,14.00
2023-03-20T03:20:57.785Z,12.57
2023-03-20T03:23:33.246Z,12.93
2023-03-20T03:26:06.879Z,12.40
2023-03-20T03:28:39.233Z,12.43
2023-03-20T03:31:10.528Z,10.93
2023-03-20T03:33:42.223Z,10.80
2023-03-20T03:36:18.947Z,14.90
2023-03-20T03:38:55.636Z,11.57
2023-03-20T03:41:30.604Z,12.67
2023-03-20T03:44:08.034Z,11.30
2023-03-20T03:46:44.544Z,11.33
2023-03-20T03:49:18.846Z,14.07
2023-03-20T03:51:50.783Z,14.13
2023-03-20T03:54:22.405Z,10.60
2023-03-20T03:57:16.339Z,10.87
2023-03-20T03:59:48.817Z,13.87
2023-03-20T04:02:20.559Z,11.60
2023-03-20T04:04:53.049Z,11.67
2023-03-20T04:07:22.621Z,15.60
2023-03-20T04:09:51.281Z,13.00
2023-03-20T04:12:40.127Z,15.37
2023-03-20T04:15:12.475Z,13.77
2023-03-20T04:17:42.038Z,15.23
2023-03-20T04:20:13.042Z,14.60
2023-03-20T04:22:41.850Z,17.17
2023-03-20T04:25:18.927Z,16.50
2023-03-20T04:27:49.389Z,17.20
2023-03-20T04:30:25.987Z,20.20
2023-03-20T04:33:13.250Z,20.40
2023-03-20T04:35:57.521Z,20.17
2023-03-20T04:38:26.485Z,24.87
2023-03-20T04:40:56.738Z,23.43
2023-03-20T04:43:27.235Z,25.27
2023-03-20T04:45:55.935Z,25.13
2023-03-20T04:48:24.724Z,27.60
2023-03-20T04:50:55.744Z,24.47
2023-03-20T04:53:30.632Z,24.33
2023-03-20T04:56:01.853Z,25.23
2023-03-20T04:58:36.013Z,25.60
2023-03-20T05:01:05.468Z,26.87
2023-03-20T05:03:35.485Z,23.30
2023-03-20T05:06:04.227Z,25.67
2023-03-20T05:08:33.114Z,28.13
2023-03-20T05:11:02.706Z,24.20
2023-03-20T05:14:08.222Z,24.37
2023-03-20T05:16:45.474Z,18.53
2023-03-20T05:19:49.993Z,16.70
2023-03-20T05:22:37.744Z,15.80
2023-03-20T05:25:18.545Z,15.67
2023-03-20T05:28:05.313Z,16.80
2023-03-20T05:30:55.768Z,18.50
2023-03-20T05:33:50.475Z,16.47
2023-03-20T05:36:38.460Z,18.57
2023-03-20T05:39:30.089Z,17.93
2023-03-20T05:42:27.879Z,20.57
2023-03-20T05:45:17.932Z,18.80
2023-03-20T05:47:56.468Z,19.70
2023-03-20T05:50:43.750Z,17.60
2023-03-20T05:53:41.249Z,15.57
2023-03-20T05:56:45.238Z,13.23
2023-03-20T05:59:40.035Z,14.50
2023-03-20T06:02:31.186Z,16.40
2023-03-20T06:05:11.600Z,14.67
2023-03-20T06:07:48.875Z,17.57
2023-03-20T06:10:20.107Z,17.83
2023-03-20T06:12:50.233Z,17.70
2023-03-20T06:15:20.947Z,18.23
2023-03-20T06:17:57.173Z,18.97
2023-03-20T06:20:27.911Z,18.73
2023-03-20T06:23:01.802Z,20.47
2023-03-20T06:25:30.613Z,17.00
2023-03-20T06:27:59.690Z,19.83
2023-03-20T06:30:29.649Z,18.47
2023-03-20T06:32:58.356Z,18.27
2023-03-20T06:35:36.380Z,20.30
2023-03-20T06:38:05.157Z,16.30
2023-03-20T06:40:34.493Z,17.50
2023-03-20T06:43:03.710Z,17.00
2023-03-20T06:45:44.841Z,17.20
2023-03-20T06:48:22.313Z,17.33
2023-03-20T06:50:53.922Z,17.53
2023-03-20T06:53:27.260Z,19.03
2023-03-20T06:56:18.086Z,17.63
2023-03-20T06:58:47.584Z,17.03
2023-03-20T07:01:20.037Z,15.17
2023-03-20T07:03:49.182Z,18.40
2023-03-20T07:06:24.374Z,16.83
2023-03-20T07:08:53.759Z,16.13
2023-03-20T07:11:23.244Z,18.67
2023-03-20T07:14:25.189Z,17.97
2023-03-20T07:17:00.539Z,19.03
2023-03-20T07:19:29.324Z,16.60
2023-03-20T07:22:03.777Z,17.97
2023-03-20T07:24:38.567Z,17.17
2023-03-20T07:27:07.411Z,16.60
2023-03-20T07:29:37.321Z,16.60
2023-03-20T07:32:16.616Z,17.20
2023-03-20T07:34:50.640Z,16.57
2023-03-20T07:37:23.239Z,17.97
2023-03-20T07:40:04.749Z,17.00
2023-03-20T07:42:47.541Z,15.33
2023-03-20T07:45:34.113Z,14.40
2023-03-20T07:48:02.974Z,16.50
2023-03-20T07:50:32.148Z,15.07
2023-03-20T07:53:02.630Z,15.17
2023-03-20T07:55:31.291Z,14.37
2023-03-20T07:58:00.142Z,14.77
2023-03-20T08:00:28.740Z,13.90
2023-03-20T08:02:58.347Z,14.93
2023-03-20T08:05:27.554Z,14.40
2023-03-20T08:07:56.516Z,15.20
2023-03-20T08:10:26.769Z,13.50
2023-03-20T08:12:56.068Z,14.00
2023-03-20T08:15:24.853Z,13.10
2023-03-20T08:17:53.579Z,13.23
2023-03-20T08:20:22.416Z,12.50
2023-03-20T08:22:51.036Z,12.37
2023-03-20T08:25:19.978Z,14.23
2023-03-20T08:27:50.928Z,10.90
2023-03-20T08:30:19.565Z,11.20
2023-03-20T08:32:48.336Z,11.23
2023-03-20T08:35:32.139Z,11.37
2023-03-20T08:38:05.966Z,11.40
2023-03-20T08:40:34.778Z,10.30
2023-03-20T08:43:05.666Z,10.73
2023-03-20T08:45:34.447Z,9.50
2023-03-20T08:48:03.872Z,9.30
2023-03-20T08:50:33.062Z,9.00
2023-03-20T08:53:01.620Z,9.87
2023-03-20T08:55:30.282Z,11.70
2023-03-20T08:57:59.298Z,8.33
2023-03-20T09:00:29.453Z,9.27
2023-03-20T09:02:58.086Z,9.50
2023-03-20T09:05:26.716Z,8.10
2023-03-20T09:07:55.413Z,8.87
2023-03-20T09:10:24.162Z,8.93
2023-03-20T09:12:52.751Z,8.77
2023-03-20T09:15:21.437Z,8.63
2023-03-20T09:17:51.694Z,7.90
2023-03-20T09:20:20.311Z,8.97
2023-03-20T09:22:49.100Z,10.50
2023-03-20T09:25:17.776Z,7.18
2023-03-20T09:27:46.608Z,8.40
2023-03-20T09:30:15.969Z,12.93
2023-03-20T09:32:44.567Z,13.82
2023-03-20T09:35:14.534Z,11.43
2023-03-20T09:37:43.268Z,7.53
2023-03-20T09:40:24.508Z,7.45
2023-03-20T09:42:59.990Z,8.05
2023-03-20T09:45:42.054Z,8.27
2023-03-20T09:48:19.850Z,6.15
2023-03-20T09:50:57.716Z,7.10
2023-03-20T09:53:31.166Z,7.68
2023-03-20T09:56:00.915Z,6.65
2023-03-20T09:58:34.227Z,6.93
2023-03-20T10:01:05.579Z,7.32
2023-03-20T10:03:43.748Z,8.27
2023-03-20T10:06:17.255Z,9.30
2023-03-20T10:08:47.339Z,7.63
2023-03-20T10:11:43.064Z,9.03
2023-03-20T10:14:22.888Z,7.22
2023-03-20T10:17:05.316Z,10.20
2023-03-20T10:19:37.868Z,9.93
2023-03-20T10:22:18.634Z,7.05
2023-03-20T10:24:53.984Z,8.02
2023-03-20T10:27:28.205Z,6.50
2023-03-20T10:30:09.918Z,10.85
2023-03-20T10:32:43.715Z,9.10
2023-03-20T10:35:22.183Z,8.02
2023-03-20T10:38:16.586Z,8.52
2023-03-20T10:40:45.614Z,7.45
2023-03-20T10:43:20.154Z,11.45
2023-03-20T10:45:52.344Z,7.28
2023-03-20T10:48:28.230Z,6.90
2023-03-20T10:50:58.554Z,11.07
2023-03-20T10:53:33.357Z,7.93
2023-03-20T10:56:06.462Z,8.33
2023-03-20T10:58:40.040Z,8.65
2023-03-20T11:01:09.249Z,5.80
2023-03-20T11:03:40.059Z,9.20
2023-03-20T11:06:17.507Z,6.70
2023-03-20T11:08:52.223Z,11.67
2023-03-20T11:11:26.029Z,8.70
2023-03-20T11:13:54.869Z,7.72
2023-03-20T11:16:25.745Z,7.18
2023-03-20T11:19:23.987Z,7.65
2023-03-20T11:21:57.065Z,8.13
2023-03-20T11:24:38.007Z,11.02
2023-03-20T11:27:09.572Z,8.52
2023-03-20T11:29:39.412Z,7.55
2023-03-20T11:33:02.022Z,6.13
2023-03-20T11:35:32.604Z,7.72
2023-03-20T11:38:12.063Z,9.55
2023-03-20T11:40:42.548Z,7.05
2023-03-20T11:43:13.867Z,6.68
2023-03-20T11:45:45.433Z,10.40
2023-03-20T11:48:20.542Z,7.28
2023-03-20T11:51:04.080Z,5.30
2023-03-20T11:53:35.816Z,6.03
2023-03-20T11:56:11.106Z,6.80
2023-03-20T11:58:50.043Z,6.80
2023-03-20T12:01:18.759Z,15.20
2023-03-20T12:03:55.594Z,9.20
2023-03-20T12:06:27.316Z,6.38
2023-03-20T12:09:02.211Z,9.35
2023-03-20T12:11:46.771Z,8.02
2023-03-20T12:14:23.933Z,9.30
2023-03-20T12:16:57.816Z,10.48
2023-03-20T12:19:31.416Z,11.57
2023-03-20T12:22:08.856Z,9.52
2023-03-20T12:24:42.979Z,8.35
2023-03-20T12:27:22.592Z,11.23
2023-03-20T12:29:55.092Z,8.50
2023-03-20T12:32:29.634Z,7.50
2023-03-20T12:35:01.036Z,7.30
2023-03-20T12:37:29.788Z,8.80
2023-03-20T12:40:01.638Z,12.60
2023-03-20T12:42:41.902Z,10.48
2023-03-20T12:45:14.818Z,7.38
2023-03-20T12:47:56.289Z,8.57
2023-03-20T12:50:32.350Z,7.10
2023-03-20T12:53:19.764Z,8.07
2023-03-20T12:56:00.687Z,8.63
2023-03-20T12:58:42.408Z,6.70
2023-03-20T13:01:19.247Z,9.25
2023-03-20T13:04:12.132Z,7.40
2023-03-20T13:06:52.265Z,10.10
2023-03-20T13:09:49.165Z,8.27
2023-03-20T13:12:27.816Z,8.35
2023-03-20T13:15:08.680Z,9.73
2023-03-20T13:17:42.438Z,9.60
2023-03-20T13:20:32.302Z,7.65
2023-03-20T13:23:15.049Z,7.40
2023-03-20T13:25:54.953Z,9.27
2023-03-20T13:28:35.263Z,8.65
2023-03-20T13:31:17.271Z,7.85
2023-03-20T13:33:52.286Z,7.90
2023-03-20T13:36:30.772Z,6.38
2023-03-20T13:39:04.336Z,5.60
2023-03-20T13:41:37.679Z,7.72
2023-03-20T13:44:10.638Z,6.22
2023-03-20T13:46:45.422Z,9.77
2023-03-20T13:49:21.046Z,8.18
2023-03-20T13:51:55.034Z,8.20
2023-03-20T13:54:48.023Z,6.22
2023-03-20T13:57:28.966Z,7.88
2023-03-20T14:00:08.293Z,11.00
2023-03-20T14:02:53.835Z,8.75
2023-03-20T14:05:26.678Z,7.05
2023-03-20T14:07:58.292Z,6.47
2023-03-20T14:10:40.150Z,8.80
2023-03-20T14:13:16.516Z,6.20
2023-03-20T14:15:56.557Z,7.13
2023-03-20T14:18:27.650Z,7.10
2023-03-20T14:20:59.057Z,7.85
2023-03-20T14:23:36.287Z,10.68
2023-03-20T14:26:11.314Z,13.45
2023-03-20T14:28:54.274Z,8.80
2023-03-20T14:31:26.827Z,8.30
2023-03-20T14:34:01.888Z,8.48
2023-03-20T14:36:43.029Z,9.73
2023-03-20T14:39:24.202Z,12.00
2023-03-20T14:42:03.982Z,10.27
2023-03-20T14:44:48.786Z,9.70
2023-03-20T14:47:29.954Z,8.48
2023-03-20T14:50:08.442Z,8.90
2023-03-20T14:52:51.618Z,9.75
2023-03-20T14:55:35.532Z,9.68
2023-03-20T14:58:32.952Z,8.60
2023-03-20T15:01:35.639Z,7.50
2023-03-20T15:04:14.429Z,16.73
2023-03-20T15:06:49.829Z,9.60
2023-03-20T15:09:20.578Z,10.43
2023-03-20T15:11:49.893Z,10.93
2023-03-20T15:14:23.077Z,9.77
2023-03-20T15:20:18.190Z,15.30
2023-03-20T15:22:52.703Z,12.73
2023-03-20T15:25:24.596Z,10.63
2023-03-20T15:27:53.652Z,10.55
2023-03-20T15:30:24.148Z,9.25
2023-03-20T15:32:56.328Z,7.73
2023-03-20T15:35:28.067Z,9.68
2023-03-20T15:38:05.702Z,10.27
2023-03-20T15:40:49.987Z,12.57
2023-03-20T15:43:22.745Z,10.43
2023-03-20T15:46:02.953Z,8.97
2023-03-20T15:48:35.681Z,12.88
2023-03-20T15:51:06.162Z,10.27
2023-03-20T15:53:39.172Z,9.20
2023-03-20T15:57:03.544Z,14.70
2023-03-20T15:59:35.763Z,11.50
2023-03-20T16:02:13.432Z,13.87
2023-03-20T16:04:47.751Z,10.83
2023-03-20T16:07:22.900Z,11.67
2023-03-20T16:09:53.199Z,12.73
2023-03-20T16:12:22.400Z,11.43
2023-03-20T16:14:52.544Z,10.83
2023-03-20T16:17:23.816Z,10.57
2023-03-20T16:19:52.657Z,9.13
2023-03-20T16:22:25.839Z,13.77
2023-03-20T16:25:00.128Z,9.17
2023-03-20T16:27:31.393Z,8.73
2023-03-20T16:30:00.701Z,13.23
2023-03-20T16:32:35.817Z,9.80
2023-03-20T16:35:09.054Z,8.67
2023-03-20T16:37:44.442Z,11.10
2023-03-20T16:40:21.586Z,13.27
2023-03-20T16:42:54.904Z,9.47
2023-03-20T16:45:30.392Z,8.47
2023-03-20T16:48:32.933Z,10.73
2023-03-20T16:51:04.366Z,11.33
2023-03-20T16:53:41.504Z,15.70
2023-03-20T16:56:15.969Z,11.67
2023-03-20T16:58:46.951Z,10.40
2023-03-20T17:01:21.395Z,10.53
2023-03-20T17:04:20.060Z,8.77
2023-03-20T17:06:50.717Z,8.97
2023-03-20T17:10:12.822Z,11.37
2023-03-20T17:12:44.038Z,8.50
2023-03-20T17:15:16.584Z,11.90
2023-03-20T17:17:45.698Z,12.17
2023-03-20T17:20:20.790Z,11.27
2023-03-20T17:22:49.483Z,11.23
2023-03-20T17:25:18.602Z,9.63
2023-03-20T17:27:48.800Z,11.97
2023-03-20T17:30:19.732Z,12.47
2023-03-20T17:32:48.646Z,10.23
2023-03-20T17:35:17.394Z,10.40
2023-03-20T17:37:45.962Z,12.60
2023-03-20T17:40:21.362Z,10.77
2023-03-20T17:42:51.535Z,13.00
2023-03-20T17:45:21.216Z,12.27
2023-03-20T17:47:51.702Z,8.77
2023-03-20T17:50:21.352Z,14.90
2023-03-20T17:52:49.991Z,13.63
2023-03-20T17:55:18.853Z,12.27
2023-03-20T17:57:48.795Z,10.27
2023-03-20T18:00:21.379Z,11.60
2023-03-20T18:02:51.322Z,10.27
2023-03-20T18:05:22.140Z,10.23
2023-03-20T18:07:50.898Z,11.30
2023-03-20T18:10:26.434Z,9.10
2023-03-20T18:12:55.046Z,10.10
2023-03-20T18:15:25.293Z,11.03
2023-03-20T18:17:54.046Z,11.10
2023-03-20T18:20:27.585Z,12.77
2023-03-20T18:22:56.472Z,14.93
2023-03-20T18:25:26.112Z,13.63
2023-03-20T18:27:55.411Z,12.83
2023-03-20T18:30:28.162Z,10.27
2023-03-20T18:32:56.888Z,14.57
2023-03-20T18:35:25.558Z,10.90
2023-03-20T18:37:54.213Z,13.70
2023-03-20T18:40:26.209Z,11.10
2023-03-20T18:42:55.507Z,12.27
2023-03-20T18:45:27.189Z,14.03
2023-03-20T18:47:56.906Z,12.47
2023-03-20T18:50:27.543Z,12.83
2023-03-20T18:52:57.792Z,10.00
2023-03-20T18:55:28.565Z,12.53
2023-03-20T18:57:57.871Z,11.77
2023-03-20T19:00:30.035Z,11.83
2023-03-20T19:02:59.189Z,11.10
2023-03-20T19:05:29.549Z,13.20
2023-03-20T19:07:59.852Z,11.83
2023-03-20T19:10:30.809Z,12.20
2023-03-20T19:12:59.677Z,12.33
2023-03-20T19:15:35.569Z,12.97
2023-03-20T19:18:05.695Z,12.10
2023-03-20T19:20:36.850Z,13.53
2023-03-20T19:23:07.252Z,10.30
2023-03-20T19:25:37.172Z,10.93
2023-03-20T19:28:37.002Z,10.10
2023-03-20T19:31:08.076Z,12.30
2023-03-20T19:33:37.140Z,13.60
2023-03-20T19:36:07.374Z,14.20
2023-03-20T19:38:37.193Z,16.07
2023-03-20T19:41:06.554Z,13.60
2023-03-20T19:43:51.482Z,13.47
2023-03-20T19:46:38.046Z,14.93
2023-03-20T19:49:08.193Z,16.07
2023-03-20T19:51:36.832Z,18.80
2023-03-20T19:54:05.620Z,14.70
2023-03-20T19:56:34.764Z,15.17
2023-03-20T19:59:05.973Z,15.43
2023-03-20T20:01:34.569Z,15.97
2023-03-20T20:04:03.311Z,18.00
2023-03-20T20:06:33.121Z,14.70
2023-03-20T20:09:03.187Z,14.07
2023-03-20T20:11:31.793Z,13.93
2023-03-20T20:14:09.371Z,13.10
2023-03-20T20:16:42.581Z,16.67
2023-03-20T20:19:11.543Z,14.03
2023-03-20T20:24:29.088Z,15.47
2023-03-20T20:27:19.352Z,13.13
2023-03-20T20:29:49.214Z,14.90
2023-03-20T20:32:21.170Z,13.70
2023-03-20T20:38:28.229Z,14.07
2023-03-20T20:40:31.094Z,14.73
2023-03-20T20:43:02.529Z,12.03
2023-03-20T20:45:32.715Z,12.60
2023-03-20T20:48:04.179Z,13.27
2023-03-20T20:50:36.015Z,11.97
2023-03-20T20:53:05.372Z,12.23
2023-03-20T20:55:33.974Z,13.20
2023-03-20T20:58:04.079Z,11.70
2023-03-20T21:00:48.452Z,9.93
2023-03-20T21:03:20.141Z,11.57
2023-03-20T21:05:48.879Z,14.43
2023-03-20T21:08:18.877Z,12.90
2023-03-20T21:10:47.983Z,10.53
2023-03-20T21:13:16.662Z,9.83
2023-03-20T21:15:46.637Z,10.07
2023-03-20T21:18:15.476Z,10.47
2023-03-20T21:20:45.566Z,10.53
2023-03-20T21:23:14.078Z,9.97
2023-03-20T21:25:46.848Z,8.07
2023-03-20T21:28:16.155Z,8.77
2023-03-20T21:31:09.010Z,11.13
2023-03-20T21:33:34.169Z,7.47
2023-03-20T21:36:04.619Z,11.30
2023-03-20T21:41:23.391Z,8.17
2023-03-20T21:43:52.568Z,8.20
2023-03-20T21:55:37.034Z,8.50
2023-03-20T22:03:33.856Z,6.80
2023-03-20T22:09:45.682Z,7.37
2023-03-20T22:15:19.982Z,6.63
2023-03-20T22:18:06.002Z,9.37
2023-03-20T22:34:54.317Z,8.87
2023-03-20T22:37:58.456Z,11.10
2023-03-20T22:41:02.787Z,14.00
2023-03-20T22:43:31.824Z,9.73
2023-03-20T22:46:03.317Z,12.00
2023-03-20T22:48:34.431Z,13.93
2023-03-20T22:51:36.907Z,12.07
2023-03-20T22:54:09.638Z,12.17
2023-03-20T22:56:38.285Z,10.37
2023-03-20T22:59:08.397Z,11.83
2023-03-20T23:01:37.005Z,11.97
2023-03-20T23:04:05.568Z,13.10
2023-03-20T23:06:34.196Z,11.63
2023-03-20T23:09:09.018Z,11.10
2023-03-20T23:11:43.378Z,11.20
2023-03-20T23:14:21.161Z,11.07
2023-03-20T23:16:50.620Z,13.97
2023-03-20T23:19:19.211Z,11.17
2023-03-20T23:21:47.942Z,11.07
2023-03-20T23:24:17.050Z,10.53
2023-03-20T23:26:45.741Z,10.70
2023-03-20T23:29:15.778Z,10.13
2023-03-20T23:31:44.597Z,8.47
2023-03-20T23:34:13.313Z,11.73
2023-03-20T23:36:42.607Z,12.13
2023-03-20T23:39:14.285Z,9.93
2023-03-20T23:42:29.358Z,10.87
2023-03-20T23:44:35.010Z,11.27
2023-03-20T23:47:17.859Z,11.70
2023-03-20T23:49:48.657Z,11.37
2023-03-20T23:52:17.460Z,8.37
2023-03-20T23:54:46.189Z,10.93
2023-03-20T23:57:14.954Z,10.63
2023-03-20T23:59:45.215Z,11.33
